Time;durP1;ratioP1;P1;durP2;ratioP2;P2;SDS_P1;SDS_P2;PMS_P1;PMS_P2;Temp;Humidity;BMP_temperature;BMP_pressure;BME280_temperature;BME280_humidity;BME280_pressure;Samples;Min_cycle;Max_cycle;Signal;HPM_P1;HPM_P2
2021/06/23 00:00:39;;;;;;;29.80;14.43;;;14.10;74.50;;;;;;4958470;28;20390;-74
2021/06/23 00:03:05;;;;;;;21.63;14.43;;;14.10;74.30;;;;;;4958704;29;20032;-74
2021/06/23 00:05:31;;;;;;;21.45;13.50;;;14.10;74.20;;;;;;4958283;28;20023;-74
2021/06/23 00:07:57;;;;;;;24.75;14.65;;;14.10;74.10;;;;;;4958477;29;20023;-74
2021/06/23 00:10:23;;;;;;;29.00;14.35;;;14.10;74.20;;;;;;4960030;28;20549;-74
2021/06/23 00:12:50;;;;;;;21.63;13.20;;;14.10;74.10;;;;;;4962686;29;20058;-74
2021/06/23 00:15:19;;;;;;;24.42;13.73;;;14.10;74.00;;;;;;4961793;28;20023;-74
2021/06/23 00:30:25;;;;;;;18.95;13.00;;;14.10;74.10;;;;;;4957725;29;22180;-75
2021/06/23 00:32:55;;;;;;;22.50;13.40;;;14.10;74.20;;;;;;4961799;28;20099;-75
2021/06/23 00:35:21;;;;;;;24.42;12.88;;;14.10;74.10;;;;;;4960254;28;20032;-74
2021/06/23 00:37:47;;;;;;;26.13;13.80;;;14.10;74.10;;;;;;4961692;28;20372;-74
2021/06/23 00:40:14;;;;;;;22.70;13.65;;;14.10;74.10;;;;;;4948877;28;20122;-74
2021/06/23 00:42:42;;;;;;;24.08;15.30;;;14.10;74.10;;;;;;4961015;29;20537;-74
2021/06/23 00:45:10;;;;;;;20.45;11.77;;;14.10;74.00;;;;;;4961283;29;20070;-74
2021/06/23 00:47:36;;;;;;;23.00;11.98;;;14.10;74.10;;;;;;4961089;29;20015;-74
2021/06/23 00:50:07;;;;;;;26.23;14.10;;;14.10;74.10;;;;;;4960890;29;20091;-74
2021/06/23 00:52:34;;;;;;;21.40;12.13;;;14.00;73.90;;;;;;4960643;28;20023;-74
2021/06/23 00:55:00;;;;;;;23.13;13.38;;;14.10;73.90;;;;;;4960893;28;20118;-75
2021/06/23 00:57:27;;;;;;;19.90;12.00;;;14.00;73.90;;;;;;4962022;29;20103;-75
2021/06/23 00:59:55;;;;;;;21.77;11.18;;;14.00;74.00;;;;;;4959875;29;20035;-74
2021/06/23 01:02:22;;;;;;;21.02;10.98;;;14.00;73.70;;;;;;4961691;29;20024;-74
2021/06/23 01:04:51;;;;;;;17.33;11.10;;;14.00;73.70;;;;;;4955091;29;20051;-74
2021/06/23 01:07:18;;;;;;;16.83;10.00;;;14.00;73.80;;;;;;4961245;29;20479;-74
2021/06/23 01:09:45;;;;;;;15.60;9.75;;;14.00;73.80;;;;;;4961168;28;20035;-74
2021/06/23 01:12:27;;;;;;;22.45;9.40;;;14.00;73.80;;;;;;4960506;29;20034;-74
2021/06/23 01:14:59;;;;;;;15.52;8.68;;;14.00;73.70;;;;;;4952294;29;20383;-74
2021/06/23 01:17:28;;;;;;;20.45;9.55;;;14.00;73.80;;;;;;4959796;29;20041;-74
2021/06/23 01:20:04;;;;;;;16.90;8.55;;;14.00;73.60;;;;;;4961104;28;20038;-74
2021/06/23 01:22:31;;;;;;;18.50;9.35;;;14.00;73.50;;;;;;4960767;28;20027;-74
2021/06/23 01:24:58;;;;;;;18.55;8.80;;;13.90;73.60;;;;;;4961452;28;20151;-74
2021/06/23 01:27:24;;;;;;;19.73;8.43;;;13.90;73.30;;;;;;4960525;28;20023;-74
2021/06/23 01:29:50;;;;;;;17.63;8.05;;;13.90;73.50;;;;;;4960500;29;20042;-74
2021/06/23 01:32:16;;;;;;;15.60;7.90;;;13.90;73.40;;;;;;4961224;28;20027;-74
2021/06/23 01:34:42;;;;;;;15.63;8.68;;;13.90;73.60;;;;;;4952320;28;20055;-74
2021/06/23 01:37:09;;;;;;;17.13;8.48;;;13.90;73.70;;;;;;4961353;28;20062;-74
2021/06/23 01:39:35;;;;;;;17.35;8.90;;;13.90;73.70;;;;;;4960407;28;20038;-74
2021/06/23 01:42:00;;;;;;;16.20;8.70;;;13.90;73.70;;;;;;4959649;29;20029;-74
2021/06/23 01:44:29;;;;;;;16.08;8.07;;;13.90;73.50;;;;;;4960435;28;20201;-74
2021/06/23 01:46:56;;;;;;;13.05;8.18;;;13.90;74.30;;;;;;4959134;29;20027;-74
2021/06/23 01:49:25;;;;;;;18.13;8.18;;;13.90;73.80;;;;;;4959638;29;20038;-74
2021/06/23 01:51:51;;;;;;;15.13;7.60;;;13.90;73.80;;;;;;4959948;28;20486;-74
2021/06/23 01:54:17;;;;;;;15.10;8.10;;;13.90;73.90;;;;;;4958985;29;20054;-74
2021/06/23 01:56:43;;;;;;;13.13;7.70;;;13.90;73.90;;;;;;4960917;28;20473;-74
2021/06/23 01:59:09;;;;;;;16.23;8.43;;;13.90;73.90;;;;;;4959075;29;20470;-74
2021/06/23 02:01:44;;;;;;;19.25;7.55;;;13.90;73.80;;;;;;4960284;28;20023;-74
2021/06/23 02:04:18;;;;;;;13.13;6.53;;;13.90;73.70;;;;;;4959613;29;20031;-74
2021/06/23 02:06:49;;;;;;;13.20;6.68;;;13.90;73.90;;;;;;4959208;29;20106;-74
2021/06/23 02:09:32;;;;;;;17.95;7.35;;;13.90;73.80;;;;;;4960379;28;20031;-74
2021/06/23 02:12:23;;;;;;;15.48;6.97;;;13.90;73.80;;;;;;4959480;29;20090;-74
2021/06/23 02:14:51;;;;;;;15.43;7.70;;;13.90;73.80;;;;;;4960449;29;20442;-74
2021/06/23 02:17:18;;;;;;;12.68;7.45;;;13.80;73.60;;;;;;4958550;29;20045;-74
2021/06/23 02:19:49;;;;;;;17.42;7.63;;;13.90;73.70;;;;;;4959437;29;20035;-74
2021/06/23 02:22:22;;;;;;;16.67;7.77;;;13.80;73.70;;;;;;4959968;28;20015;-74
2021/06/23 02:24:50;;;;;;;;;;;13.80;73.80;;;;;;4958526;29;20057;-74
2021/06/23 02:27:16;;;;;;;16.75;7.40;;;13.80;73.80;;;;;;4958323;29;20386;-74
2021/06/23 02:29:44;;;;;;;17.15;7.40;;;13.80;73.80;;;;;;4959299;28;20031;-74
2021/06/23 02:32:14;;;;;;;13.65;7.75;;;13.80;73.80;;;;;;4959597;28;20031;-74
2021/06/23 02:34:42;;;;;;;16.30;7.75;;;13.80;73.70;;;;;;4955845;28;20023;-74
2021/06/23 02:37:10;;;;;;;18.58;9.70;;;13.80;74.50;;;;;;4959695;28;20094;-74
2021/06/23 02:39:37;;;;;;;14.13;8.38;;;13.80;73.80;;;;;;4959632;28;20039;-74
2021/06/23 02:42:04;;;;;;;15.80;7.88;;;13.80;73.80;;;;;;4959622;28;20023;-74
2021/06/23 02:44:30;;;;;;;17.08;7.30;;;13.80;74.10;;;;;;4959466;28;20049;-73
2021/06/23 02:46:56;;;;;;;17.25;8.05;;;13.80;74.00;;;;;;4957591;28;20020;-74
2021/06/23 02:49:23;;;;;;;18.80;8.73;;;13.80;74.10;;;;;;4959166;29;20023;-74
2021/06/23 02:51:49;;;;;;;15.85;7.90;;;13.80;74.20;;;;;;4959901;28;20463;-74
2021/06/23 02:54:15;;;;;;;17.73;8.45;;;13.80;74.10;;;;;;4959599;28;20402;-74
2021/06/23 02:56:41;;;;;;;18.88;8.93;;;13.80;74.20;;;;;;4958989;28;20050;-74
2021/06/23 02:59:10;;;;;;;14.90;9.00;;;13.80;74.20;;;;;;4958934;29;20122;-74
2021/06/23 03:01:36;;;;;;;16.42;7.72;;;13.80;74.40;;;;;;4958808;28;20015;-74
2021/06/23 03:04:02;;;;;;;18.70;7.78;;;13.70;74.80;;;;;;4958959;29;20035;-73
2021/06/23 03:06:27;;;;;;;16.73;8.30;;;13.70;74.70;;;;;;4959259;29;20028;-74
2021/06/23 03:08:53;;;;;;;16.65;8.40;;;13.70;74.90;;;;;;4959605;28;20509;-74
2021/06/23 03:11:19;;;;;;;15.77;7.03;;;13.70;74.80;;;;;;4959039;28;20041;-74
2021/06/23 03:13:45;;;;;;;15.43;7.93;;;13.70;75.20;;;;;;4958840;28;20114;-74
2021/06/23 03:16:11;;;;;;;14.95;7.45;;;13.70;75.00;;;;;;4957568;29;20079;-74
2021/06/23 03:18:37;;;;;;;15.98;8.00;;;13.70;75.20;;;;;;4958791;29;20442;-74
2021/06/23 03:21:06;;;;;;;17.85;7.63;;;13.70;75.40;;;;;;4959246;28;20030;-74
2021/06/23 03:23:32;;;;;;;19.38;8.63;;;13.70;75.40;;;;;;4959154;28;20032;-74
2021/06/23 03:25:58;;;;;;;20.33;7.70;;;13.80;75.70;;;;;;4958741;28;20032;-74
2021/06/23 03:28:24;;;;;;;21.67;8.02;;;13.70;75.60;;;;;;4957513;28;20046;-74
2021/06/23 03:30:50;;;;;;;16.85;7.90;;;13.70;76.10;;;;;;4958583;29;20041;-74
2021/06/23 03:33:17;;;;;;;17.63;8.27;;;13.70;75.80;;;;;;4944388;29;20035;-74
2021/06/23 03:35:43;;;;;;;19.65;8.32;;;13.70;75.60;;;;;;4950551;29;20440;-74
2021/06/23 03:38:09;;;;;;;24.88;8.65;;;13.70;75.50;;;;;;4958172;28;20474;-74
2021/06/23 03:40:34;;;;;;;18.20;8.05;;;13.70;75.60;;;;;;4958801;28;20027;-74
2021/06/23 03:43:00;;;;;;;17.00;7.68;;;13.70;75.50;;;;;;4958556;29;20030;-74
2021/06/23 03:45:26;;;;;;;19.50;8.98;;;13.70;75.60;;;;;;4961984;28;20027;-74
2021/06/23 03:47:52;;;;;;;15.43;8.27;;;13.70;75.50;;;;;;4962298;29;20155;-74
2021/06/23 03:50:18;;;;;;;15.07;7.28;;;13.70;75.80;;;;;;4961998;28;20059;-74
2021/06/23 03:52:44;;;;;;;17.95;8.02;;;13.70;75.70;;;;;;4962456;28;20023;-74
2021/06/23 03:55:19;;;;;;;16.55;8.10;;;13.70;75.70;;;;;;4962738;28;20086;-74
2021/06/23 03:57:50;;;;;;;16.60;7.60;;;13.70;75.70;;;;;;4963383;28;20031;-74
2021/06/23 04:00:18;;;;;;;17.05;7.63;;;13.70;75.80;;;;;;4959508;29;20035;-74
2021/06/23 04:02:44;;;;;;;18.13;8.30;;;13.70;76.00;;;;;;4962222;29;20031;-74
2021/06/23 04:05:11;;;;;;;17.02;7.70;;;13.70;75.70;;;;;;4962420;28;20030;-74
2021/06/23 04:07:37;;;;;;;19.20;7.43;;;13.70;76.10;;;;;;4962588;28;20027;-74
2021/06/23 04:10:04;;;;;;;17.80;7.38;;;13.70;76.00;;;;;;4962382;29;20031;-74
2021/06/23 04:12:30;;;;;;;14.65;7.20;;;13.70;76.10;;;;;;4962807;28;20039;-74
2021/06/23 04:14:56;;;;;;;17.67;7.28;;;13.70;76.30;;;;;;4962025;28;20020;-74
2021/06/23 04:17:22;;;;;;;17.85;6.75;;;13.70;76.40;;;;;;4961661;28;20031;-73
2021/06/23 04:19:48;;;;;;;16.95;7.10;;;13.70;76.50;;;;;;4962374;28;20359;-74
2021/06/23 04:22:14;;;;;;;13.65;7.18;;;13.70;76.50;;;;;;4962612;28;20038;-74
2021/06/23 04:24:40;;;;;;;16.65;6.60;;;13.70;76.50;;;;;;4962203;29;20510;-74
2021/06/23 04:27:06;;;;;;;15.57;7.15;;;13.70;76.50;;;;;;4961526;28;20035;-74
2021/06/23 04:29:32;;;;;;;16.27;7.30;;;13.70;76.90;;;;;;4961893;28;20047;-74
2021/06/23 04:31:58;;;;;;;13.68;6.28;;;13.70;76.80;;;;;;4961066;29;20027;-74
2021/06/23 04:34:24;;;;;;;18.73;7.65;;;13.70;76.60;;;;;;4955284;28;20024;-74
2021/06/23 04:36:50;;;;;;;15.23;6.97;;;13.70;76.70;;;;;;4962003;28;20086;-73
2021/06/23 04:39:15;;;;;;;16.90;6.43;;;13.70;76.90;;;;;;4961996;28;20048;-74
2021/06/23 04:41:41;;;;;;;16.88;6.32;;;13.70;76.70;;;;;;4961656;29;20031;-74
2021/06/23 04:44:07;;;;;;;14.63;7.03;;;13.70;76.70;;;;;;4962294;28;20506;-74
2021/06/23 04:46:34;;;;;;;16.77;6.22;;;13.70;76.70;;;;;;4960080;29;20050;-74
2021/06/23 04:49:00;;;;;;;17.10;6.32;;;13.70;76.70;;;;;;4961575;28;20042;-74
2021/06/23 04:51:26;;;;;;;13.40;5.75;;;13.70;77.40;;;;;;4961380;28;20111;-74
2021/06/23 04:53:52;;;;;;;16.48;6.28;;;13.70;77.60;;;;;;4961799;28;20058;-74
2021/06/23 04:56:18;;;;;;;17.65;6.65;;;13.70;77.10;;;;;;4960436;28;20066;-74
2021/06/23 04:58:44;;;;;;;11.13;5.95;;;13.70;77.10;;;;;;4961766;28;20023;-74
2021/06/23 05:01:10;;;;;;;10.27;5.70;;;13.70;77.20;;;;;;4960924;28;20038;-74
2021/06/23 05:03:36;;;;;;;17.08;6.75;;;13.70;77.00;;;;;;4961210;28;20023;-74
2021/06/23 05:06:02;;;;;;;15.40;6.07;;;13.70;76.90;;;;;;4961117;28;20276;-74
2021/06/23 05:08:29;;;;;;;13.63;6.25;;;13.70;77.40;;;;;;4961666;28;20035;-74
2021/06/23 05:10:55;;;;;;;15.60;5.75;;;13.70;77.10;;;;;;4960936;28;20094;-72
2021/06/23 05:13:21;;;;;;;13.07;5.80;;;13.70;77.20;;;;;;4952336;28;20026;-76
2021/06/23 05:15:48;;;;;;;14.50;5.45;;;13.80;77.30;;;;;;4960114;29;20039;-75
2021/06/23 05:18:14;;;;;;;14.13;6.32;;;13.70;77.10;;;;;;4958518;29;20028;-76
2021/06/23 05:20:41;;;;;;;15.77;6.43;;;13.80;77.20;;;;;;4961086;28;20027;-75
2021/06/23 05:23:08;;;;;;;11.20;5.55;;;13.80;77.20;;;;;;4960664;28;20023;-73
2021/06/23 05:25:34;;;;;;;11.25;5.03;;;13.80;77.40;;;;;;4960728;28;20023;-72
2021/06/23 05:28:00;;;;;;;12.50;6.03;;;13.80;77.40;;;;;;4961478;29;20031;-72
2021/06/23 05:30:26;;;;;;;13.13;5.20;;;13.80;77.20;;;;;;4960762;28;20031;-72
2021/06/23 05:32:52;;;;;;;15.30;5.43;;;13.90;77.40;;;;;;4960414;28;20894;-70
2021/06/23 05:35:20;;;;;;;13.32;5.30;;;13.90;77.40;;;;;;4954923;28;20019;-71
2021/06/23 05:37:46;;;;;;;12.07;4.70;;;13.90;77.40;;;;;;4960585;28;20023;-73
2021/06/23 05:40:13;;;;;;;11.82;4.78;;;13.90;77.50;;;;;;4960836;28;20577;-73
2021/06/23 05:42:39;;;;;;;13.18;4.93;;;13.90;77.60;;;;;;4961272;28;20497;-71
2021/06/23 05:45:06;;;;;;;14.57;4.85;;;13.90;77.60;;;;;;4959469;28;20039;-71
2021/06/23 05:47:36;;;;;;;20.20;5.55;;;14.00;78.00;;;;;;4960205;28;20039;-76
2021/06/23 05:50:03;;;;;;;12.95;4.63;;;14.00;77.90;;;;;;4960764;28;20038;-80
2021/06/23 05:52:29;;;;;;;13.57;5.03;;;14.00;77.90;;;;;;4956951;29;20050;-79
2021/06/23 05:54:55;;;;;;;18.13;5.03;;;14.00;78.30;;;;;;4960511;28;20482;-76
2021/06/23 05:57:21;;;;;;;9.52;5.18;;;14.10;78.50;;;;;;4960360;28;20475;-73
2021/06/23 05:59:46;;;;;;;14.18;4.93;;;14.10;78.30;;;;;;4959541;29;20051;-72
2021/06/23 06:02:12;;;;;;;15.63;5.00;;;14.10;78.30;;;;;;4960488;28;20114;-72
2021/06/23 06:04:38;;;;;;;9.82;4.93;;;14.20;78.50;;;;;;4959508;28;20070;-73
2021/06/23 06:07:04;;;;;;;16.65;4.85;;;14.20;78.70;;;;;;4960166;28;20040;-73
2021/06/23 06:09:29;;;;;;;13.45;5.40;;;14.30;79.20;;;;;;4960647;28;20020;-73
2021/06/23 06:11:55;;;;;;;13.27;4.93;;;14.30;78.90;;;;;;4960791;28;20039;-73
2021/06/23 06:14:21;;;;;;;11.85;4.45;;;14.40;79.00;;;;;;4960621;28;20398;-73
2021/06/23 06:16:47;;;;;;;16.40;4.38;;;14.50;79.30;;;;;;4960403;28;20558;-74
2021/06/23 06:19:13;;;;;;;13.15;4.10;;;14.60;79.30;;;;;;4960007;28;20081;-74
2021/06/23 06:21:39;;;;;;;13.55;3.97;;;14.70;79.40;;;;;;4960626;28;20023;-74
2021/06/23 06:24:05;;;;;;;15.40;5.43;;;14.70;79.30;;;;;;4960260;28;20019;-74
2021/06/23 06:26:31;;;;;;;15.77;4.65;;;14.80;79.50;;;;;;4960492;29;20082;-74
2021/06/23 06:28:57;;;;;;;15.25;4.00;;;15.00;79.70;;;;;;4959917;28;20030;-74
2021/06/23 06:31:23;;;;;;;12.98;4.15;;;15.10;79.80;;;;;;4960542;28;20031;-73
2021/06/23 06:33:51;;;;;;;15.57;5.13;;;15.20;79.60;;;;;;4957513;28;20051;-74
2021/06/23 06:36:17;;;;;;;12.05;5.10;;;15.30;78.70;;;;;;4960247;28;20034;-74
2021/06/23 06:38:43;;;;;;;15.60;4.53;;;15.40;80.20;;;;;;4959776;28;20078;-74
2021/06/23 06:41:09;;;;;;;11.65;3.47;;;15.50;79.70;;;;;;4960158;28;20027;-74
2021/06/23 06:43:34;;;;;;;13.63;4.13;;;15.70;78.90;;;;;;4959880;28;20043;-74
2021/06/23 06:46:00;;;;;;;13.88;4.75;;;15.80;79.10;;;;;;4960069;28;20023;-74
2021/06/23 06:48:27;;;;;;;18.23;4.45;;;16.00;77.50;;;;;;4959707;28;20019;-74
2021/06/23 06:50:53;;;;;;;16.13;3.80;;;16.00;77.60;;;;;;4959875;28;20053;-74
2021/06/23 06:53:19;;;;;;;11.60;3.35;;;16.00;77.20;;;;;;4959667;28;20027;-74
2021/06/23 06:55:46;;;;;;;13.48;4.20;;;16.00;75.50;;;;;;4959812;29;20030;-74
2021/06/23 06:58:13;;;;;;;13.40;4.15;;;16.00;77.10;;;;;;4959570;28;20079;-74
2021/06/23 07:00:39;;;;;;;15.55;4.65;;;15.90;75.00;;;;;;4946905;28;20027;-74
2021/06/23 07:03:05;;;;;;;12.38;3.55;;;15.90;75.70;;;;;;4959708;28;20028;-74
2021/06/23 07:05:31;;;;;;;18.65;4.53;;;15.90;76.50;;;;;;4959617;28;20030;-74
2021/06/23 07:07:57;;;;;;;14.60;3.50;;;15.90;75.90;;;;;;4959875;28;20023;-73
2021/06/23 07:10:23;;;;;;;14.35;3.65;;;15.90;75.60;;;;;;4959561;28;20067;-74
2021/06/23 07:12:49;;;;;;;11.70;4.22;;;15.90;76.00;;;;;;4959725;28;20023;-72
2021/06/23 07:15:16;;;;;;;11.80;3.97;;;15.80;76.50;;;;;;4959518;28;20050;-73
2021/06/23 07:17:42;;;;;;;12.27;3.83;;;15.90;76.60;;;;;;4959296;28;20027;-74
2021/06/23 07:20:09;;;;;;;11.70;4.15;;;15.90;76.30;;;;;;4959011;28;20077;-73
2021/06/23 07:22:35;;;;;;;13.85;3.88;;;15.80;75.30;;;;;;4958272;29;20049;-73
2021/06/23 07:25:00;;;;;;;16.25;4.28;;;15.80;75.50;;;;;;4959266;28;20023;-73
2021/06/23 07:27:27;;;;;;;11.02;3.60;;;15.70;75.90;;;;;;4959260;28;20033;-73
2021/06/23 07:29:53;;;;;;;15.98;4.70;;;15.80;75.10;;;;;;4959397;28;20034;-73
2021/06/23 07:37:15;;;;;;;15.43;4.15;;;15.90;75.40;;;;;;4940350;29;20039;-73
2021/06/23 07:39:41;;;;;;;15.55;4.13;;;15.90;75.20;;;;;;4943797;29;20028;-74
2021/06/23 07:42:08;;;;;;;10.13;3.80;;;16.10;75.20;;;;;;4940117;29;20658;-74
2021/06/23 07:44:49;;;;;;;11.75;4.28;;;16.10;76.00;;;;;;4940005;29;20051;-74
2021/06/23 07:47:24;;;;;;;12.32;4.55;;;16.30;76.60;;;;;;4940009;29;20016;-74
2021/06/23 07:49:50;;;;;;;14.32;5.00;;;16.50;75.00;;;;;;4939755;29;20043;-74
2021/06/23 08:11:53;;;;;;;10.45;3.33;;;19.90;76.40;;;;;;4958970;28;20035;-75
2021/06/23 08:14:14;;;;;;;12.98;3.80;;;20.00;73.00;;;;;;4958583;29;20035;-75
2021/06/23 08:16:40;;;;;;;12.82;3.50;;;20.00;70.00;;;;;;4958955;28;20046;-74
2021/06/23 08:19:06;;;;;;;10.73;3.08;;;19.70;69.50;;;;;;4958712;29;20035;-74
2021/06/23 08:21:32;;;;;;;10.85;3.00;;;19.50;69.10;;;;;;4959076;28;20043;-74
2021/06/23 08:23:58;;;;;;;10.73;3.95;;;19.20;63.90;;;;;;4958593;29;20024;-74
2021/06/23 08:26:24;;;;;;;10.88;3.40;;;18.90;65.10;;;;;;4958777;28;20066;-75
2021/06/23 08:28:49;;;;;;;10.38;3.25;;;18.70;65.50;;;;;;4958697;28;20090;-74
2021/06/23 08:31:15;;;;;;;9.65;2.95;;;18.50;64.60;;;;;;4960069;28;20032;-74
2021/06/23 08:33:41;;;;;;;14.40;3.53;;;18.30;68.00;;;;;;4957100;28;20087;-75
2021/06/23 08:36:09;;;;;;;10.35;3.42;;;18.20;67.70;;;;;;4955022;29;20035;-75
2021/06/23 08:38:35;;;;;;;11.65;3.67;;;18.20;67.60;;;;;;4962035;28;20027;-74
2021/06/23 08:41:02;;;;;;;12.48;3.85;;;18.10;67.00;;;;;;4962406;28;20028;-75
2021/06/23 08:43:28;;;;;;;12.80;3.17;;;18.00;66.60;;;;;;4949591;29;20039;-74
2021/06/23 08:45:54;;;;;;;11.82;3.50;;;17.90;66.80;;;;;;4962114;28;20434;-74
2021/06/23 08:48:20;;;;;;;8.65;3.42;;;18.00;66.70;;;;;;4962074;28;20027;-75
2021/06/23 08:50:46;;;;;;;9.57;3.15;;;18.10;68.30;;;;;;4962037;28;20027;-74
2021/06/23 08:53:12;;;;;;;11.02;3.33;;;18.30;69.90;;;;;;4962349;28;20517;-75
2021/06/23 08:55:38;;;;;;;12.95;3.72;;;18.60;68.30;;;;;;4962147;28;20028;-75
2021/06/23 08:58:04;;;;;;;14.75;3.65;;;18.90;66.50;;;;;;4962225;28;20521;-75
2021/06/23 09:00:31;;;;;;;8.18;3.60;;;19.10;65.40;;;;;;4950173;28;20032;-75
2021/06/23 09:03:02;;;;;;;7.72;2.80;;;19.20;66.70;;;;;;4960861;29;20027;-74
2021/06/23 09:05:49;;;;;;;9.03;3.23;;;19.10;64.70;;;;;;4962104;28;20058;-74
2021/06/23 09:08:27;;;;;;;9.30;3.80;;;19.10;66.30;;;;;;4951724;29;20027;-75
2021/06/23 09:10:53;;;;;;;9.50;3.85;;;19.20;66.80;;;;;;4961642;28;20058;-74
2021/06/23 09:13:20;;;;;;;7.32;2.97;;;19.30;64.80;;;;;;4961967;28;20023;-74
2021/06/23 09:15:55;;;;;;;9.82;3.13;;;19.50;63.10;;;;;;4961566;29;20023;-74
2021/06/23 09:18:32;;;;;;;11.25;3.78;;;19.60;64.90;;;;;;4960436;29;20050;-75
2021/06/23 09:21:20;;;;;;;9.32;3.35;;;19.70;65.20;;;;;;4964753;28;20455;-75
2021/06/23 09:23:50;;;;;;;10.63;3.75;;;19.80;64.40;;;;;;4959992;29;20451;-75
2021/06/23 09:26:19;;;;;;;11.35;3.78;;;19.80;64.70;;;;;;4961638;28;20034;-74
2021/06/23 09:29:02;;;;;;;11.77;4.65;;;20.00;65.30;;;;;;4961137;28;20027;-75
2021/06/23 09:31:59;;;;;;;10.75;4.38;;;20.00;64.90;;;;;;4961524;28;20035;-74
2021/06/23 09:34:30;;;;;;;11.18;4.57;;;20.10;61.60;;;;;;4950517;28;20036;-74
2021/06/23 09:36:56;;;;;;;12.32;4.13;;;20.00;62.60;;;;;;4961180;29;20039;-74
2021/06/23 09:39:27;;;;;;;7.95;4.35;;;20.00;64.60;;;;;;4960934;28;20475;-74
2021/06/23 09:41:54;;;;;;;10.07;4.13;;;20.00;64.70;;;;;;4960967;28;20085;-74
2021/06/23 09:44:26;;;;;;;11.25;4.15;;;20.00;64.70;;;;;;4960851;28;20051;-74
2021/06/23 09:46:52;;;;;;;9.80;4.13;;;19.90;62.60;;;;;;4960991;28;20058;-74
2021/06/23 09:49:24;;;;;;;9.50;4.28;;;19.80;62.50;;;;;;4960728;28;20113;-74
2021/06/23 09:52:10;;;;;;;9.73;4.65;;;19.80;62.00;;;;;;4961006;28;20054;-74
2021/06/23 09:54:49;;;;;;;11.32;4.45;;;19.70;61.20;;;;;;4960700;28;20430;-75
2021/06/23 09:57:15;;;;;;;8.02;4.65;;;19.60;64.40;;;;;;4960909;28;20063;-76
2021/06/23 09:59:46;;;;;;;12.00;5.40;;;19.60;64.40;;;;;;4955335;28;20031;-77
2021/06/23 10:02:37;;;;;;;13.63;4.53;;;19.50;60.10;;;;;;4948788;29;20078;-77
2021/06/23 10:05:21;;;;;;;11.82;5.15;;;19.40;62.00;;;;;;4948028;29;20038;-77
2021/06/23 10:07:49;;;;;;;12.07;5.88;;;19.30;62.50;;;;;;4951015;29;20023;-79
2021/06/23 10:10:21;;;;;;;12.02;5.32;;;19.30;63.00;;;;;;4950869;29;20043;-79
2021/06/23 10:12:52;;;;;;;10.85;4.97;;;19.30;63.50;;;;;;4949872;29;20031;-78
2021/06/23 10:15:19;;;;;;;13.80;5.32;;;19.30;63.40;;;;;;4950887;29;20027;-78
2021/06/23 10:17:45;;;;;;;12.45;5.00;;;19.20;63.80;;;;;;4950165;29;20023;-74
2021/06/23 10:20:13;;;;;;;10.13;4.93;;;19.30;64.30;;;;;;4952615;28;20561;-77
2021/06/23 10:22:42;;;;;;;12.00;5.20;;;19.30;65.60;;;;;;4970837;28;20513;-79
2021/06/23 10:25:11;;;;;;;11.18;5.88;;;19.40;64.90;;;;;;4954587;29;20023;-78
2021/06/23 10:27:42;;;;;;;10.52;5.22;;;19.40;65.30;;;;;;4955333;28;20458;-78
2021/06/23 10:30:09;;;;;;;10.30;5.15;;;19.40;62.30;;;;;;4955294;28;20023;-79
2021/06/23 10:32:35;;;;;;;10.70;6.03;;;19.50;63.40;;;;;;4959882;28;20047;-78
2021/06/23 10:35:01;;;;;;;9.95;6.25;;;19.50;64.70;;;;;;4947718;28;20028;-78
2021/06/23 10:37:28;;;;;;;11.80;5.38;;;19.50;64.60;;;;;;4951835;28;20027;-79
2021/06/23 10:39:55;;;;;;;12.35;4.90;;;19.50;61.80;;;;;;4958467;29;20023;-77
2021/06/23 10:42:23;;;;;;;9.68;4.88;;;19.50;59.80;;;;;;4959750;28;20027;-77
2021/06/23 10:44:57;;;;;;;11.80;5.13;;;19.50;62.60;;;;;;4959510;28;20042;-75
2021/06/23 10:47:41;;;;;;;10.70;5.85;;;19.70;65.30;;;;;;4959602;28;20638;-77
2021/06/23 10:50:32;;;;;;;13.50;4.75;;;19.80;65.10;;;;;;4947994;29;20027;-78
2021/06/23 10:52:58;;;;;;;8.85;4.13;;;20.00;64.50;;;;;;4954423;28;20063;-78
2021/06/23 10:55:24;;;;;;;8.20;3.65;;;20.10;63.60;;;;;;4951230;29;20023;-78
2021/06/23 10:57:52;;;;;;;12.98;4.40;;;20.10;59.90;;;;;;4957382;29;20038;-77
2021/06/23 11:00:18;;;;;;;9.43;4.13;;;20.10;62.30;;;;;;4955231;28;20491;-78
2021/06/23 11:02:48;;;;;;;11.80;4.78;;;20.10;62.50;;;;;;4956886;29;20054;-78
2021/06/23 11:05:16;;;;;;;8.43;4.43;;;20.00;63.30;;;;;;4959380;28;20027;-78
2021/06/23 11:07:52;;;;;;;11.02;4.97;;;20.00;60.80;;;;;;4959617;28;20114;-78
2021/06/23 11:10:25;;;;;;;11.70;5.18;;;19.90;60.90;;;;;;4958096;29;20046;-77
2021/06/23 11:13:02;;;;;;;12.25;5.50;;;19.90;63.60;;;;;;4947756;29;20067;-76
2021/06/23 11:15:35;;;;;;;12.52;4.50;;;19.90;63.60;;;;;;4959219;28;20027;-78
2021/06/23 11:18:25;;;;;;;15.95;4.65;;;20.10;62.70;;;;;;4959368;28;20035;-76
2021/06/23 11:20:55;;;;;;;9.95;4.65;;;20.30;64.10;;;;;;4947026;29;20055;-77
2021/06/23 11:23:49;;;;;;;12.50;4.88;;;20.50;64.20;;;;;;4959066;29;20360;-73
2021/06/23 11:26:21;;;;;;;11.63;4.90;;;20.60;63.20;;;;;;4955636;28;20048;-77
2021/06/23 11:28:57;;;;;;;;;;;20.60;62.00;;;;;;4958270;29;20394;-78
2021/06/23 11:31:53;;;;;;;11.73;3.63;;;20.60;60.40;;;;;;4953823;29;20377;-78
2021/06/23 11:34:40;;;;;;;13.00;3.75;;;20.60;61.90;;;;;;4949001;28;20032;-76
2021/06/23 11:37:08;;;;;;;9.48;3.38;;;20.70;62.30;;;;;;4946844;29;20031;-79
2021/06/23 11:39:35;;;;;;;13.70;4.22;;;20.70;63.50;;;;;;4958655;28;20507;-79
2021/06/23 11:42:01;;;;;;;9.45;3.33;;;20.80;62.70;;;;;;4959056;28;20028;-78
2021/06/23 11:44:30;;;;;;;9.95;3.20;;;20.80;59.40;;;;;;4958949;28;20038;-78
2021/06/23 11:46:58;;;;;;;13.40;3.92;;;20.90;63.20;;;;;;4958898;28;20027;-78
2021/06/23 11:49:25;;;;;;;10.52;3.65;;;21.20;63.10;;;;;;4958647;28;20027;-78
2021/06/23 11:51:52;;;;;;;8.50;3.50;;;21.40;62.30;;;;;;4939540;29;20055;-78
2021/06/23 11:54:18;;;;;;;7.88;3.90;;;21.60;62.70;;;;;;4927776;29;20027;-79
2021/06/23 11:56:44;;;;;;;11.45;3.97;;;21.80;62.10;;;;;;4933734;29;20066;-79
2021/06/23 11:59:10;;;;;;;10.00;4.57;;;21.90;62.00;;;;;;4931864;29;20618;-79
2021/06/23 12:01:36;;;;;;;8.57;3.90;;;21.90;59.40;;;;;;4927140;29;20106;-79
2021/06/23 12:04:02;;;;;;;9.40;3.38;;;21.80;61.70;;;;;;4938115;29;20051;-79
2021/06/23 12:06:29;;;;;;;8.77;3.15;;;21.70;59.50;;;;;;4942781;29;20020;-79
2021/06/23 12:08:55;;;;;;;10.95;4.05;;;21.70;61.90;;;;;;4939316;29;20027;-80
2021/06/23 12:11:21;;;;;;;9.23;2.95;;;21.70;62.30;;;;;;4943482;29;20032;-80
2021/06/23 12:13:47;;;;;;;10.45;3.22;;;21.70;60.30;;;;;;4943408;29;20027;-80
2021/06/23 12:16:13;;;;;;;7.30;3.38;;;21.70;58.90;;;;;;4943513;29;20118;-79
2021/06/23 12:18:39;;;;;;;11.52;4.18;;;21.70;61.00;;;;;;4942958;29;20465;-80
2021/06/23 12:21:05;;;;;;;8.35;3.70;;;21.70;58.30;;;;;;4935246;29;20091;-80
2021/06/23 12:23:31;;;;;;;9.40;3.97;;;21.60;60.20;;;;;;4943277;29;20023;-80
2021/06/23 12:25:57;;;;;;;11.68;3.95;;;21.60;58.20;;;;;;4942159;29;20016;-80
2021/06/23 12:28:24;;;;;;;9.40;4.10;;;21.60;60.30;;;;;;4939282;29;20039;-80
2021/06/23 12:30:50;;;;;;;9.07;3.83;;;21.50;62.10;;;;;;4938920;29;20031;-79
2021/06/23 12:33:16;;;;;;;7.25;3.80;;;21.60;62.20;;;;;;4941379;29;20892;-78
2021/06/23 12:35:45;;;;;;;9.95;3.75;;;21.60;60.50;;;;;;4933412;29;20034;-78
2021/06/23 12:38:14;;;;;;;7.35;3.83;;;21.60;60.70;;;;;;4942815;29;20016;-77
2021/06/23 12:40:40;;;;;;;12.38;4.15;;;21.70;61.30;;;;;;4942507;29;20372;-78
2021/06/23 12:43:10;;;;;;;11.80;3.90;;;21.60;61.20;;;;;;4938828;29;20087;-75
2021/06/23 12:45:40;;;;;;;8.85;3.72;;;21.70;61.00;;;;;;4936992;29;20400;-80
2021/06/23 12:48:07;;;;;;;11.25;3.67;;;21.70;59.70;;;;;;4941797;29;20030;-81
2021/06/23 12:50:34;;;;;;;9.20;3.90;;;21.70;59.50;;;;;;4942488;29;20110;-79
2021/06/23 12:53:00;;;;;;;10.55;3.72;;;21.70;60.90;;;;;;4938884;29;20075;-77
2021/06/23 12:55:26;;;;;;;8.70;3.55;;;21.70;60.10;;;;;;4932806;29;20047;-78
2021/06/23 12:57:52;;;;;;;7.70;3.45;;;21.70;57.50;;;;;;4942505;29;20031;-77
2021/06/23 13:00:20;;;;;;;7.65;3.40;;;21.70;58.80;;;;;;4928740;29;20028;-77
2021/06/23 13:02:46;;;;;;;7.80;3.70;;;21.70;56.40;;;;;;4939781;29;20024;-77
2021/06/23 13:05:13;;;;;;;9.45;3.75;;;21.70;58.90;;;;;;4942338;29;20032;-76
2021/06/23 13:07:40;;;;;;;7.57;3.03;;;21.70;60.00;;;;;;4942357;29;20075;-76
2021/06/23 13:10:07;;;;;;;6.72;3.20;;;21.70;61.00;;;;;;4942329;29;20499;-76
2021/06/23 13:12:34;;;;;;;9.88;3.20;;;21.80;61.20;;;;;;4942395;29;20026;-76
2021/06/23 13:15:00;;;;;;;11.02;4.30;;;21.90;59.50;;;;;;4942308;29;20035;-76
2021/06/23 13:17:28;;;;;;;8.23;3.33;;;21.90;61.60;;;;;;4941202;29;20035;-77
2021/06/23 13:19:54;;;;;;;8.38;3.80;;;22.10;61.70;;;;;;4941916;29;20027;-75